CST,Max TemperatureF,Mean TemperatureF,Min TemperatureF,Max Dew PointF,MeanDew PointF,Min DewpointF,Max Humidity, Mean Humidity, Min Humidity, Max Sea Level PressureIn, Mean Sea Level PressureIn, Min Sea Level PressureIn, Max VisibilityMiles, Mean VisibilityMiles, Min VisibilityMiles, Max Wind SpeedMPH, Mean Wind SpeedMPH, Max Gust SpeedMPH,PrecipitationIn, CloudCover, Events, WindDirDegrees
2012-12-1,79,69,59,64,60,54,90,74,58,30.16,30.09,30.02,10,9,6,20,10,25,0.00,5,,164
2012-12-2,81,73,65,65,62,58,93,71,49,30.18,30.11,30.06,10,10,7,20,10,25,0.00,4,,184
2012-12-3,77,70,62,66,64,61,93,79,64,30.08,30.04,29.98,10,9,2,21,11,26,T,5,Rain,168
2012-12-4,77,70,63,67,62,53,93,77,61,30.18,30.10,30.04,10,10,8,14,8,18,T,7,,207
2012-12-5,64,58,51,57,53,50,90,77,63,30.24,30.16,30.07,10,10,10,13,4,17,0.00,7,,35
2012-12-6,67,58,48,54,52,48,100,79,58,30.07,29.98,29.89,10,8,2,13,6,16,0.00,4,,138
2012-12-7,73,61,49,61,56,48,100,84,68,29.92,29.87,29.81,10,6,1,16,6,20,0.00,6,,160
2012-12-8,77,68,58,67,64,59,100,82,64,29.91,29.85,29.80,10,8,2,13,6,16,0.03,6,Rain,192
2012-12-9,76,65,53,67,62,43,93,81,69,29.94,29.83,29.76,10,8,2,20,12,25,0.14,6,Rain-Thunderstorm,230
2012-12-10,53,42,30,42,25,18,71,57,42,30.15,30.05,29.90,10,10,7,28,12,37,0.01,2,Rain-Snow,323
2012-12-11,51,38,25,26,22,17,81,54,27,30.27,30.20,30.12,10,10,10,9,2,13,0.00,0,,38
2012-12-12,56,39,22,27,20,10,88,52,16,30.38,30.32,30.27,10,10,10,10,3,13,0.00,0,,136
2012-12-13,61,44,26,34,26,22,85,54,22,30.39,30.32,30.25,10,10,10,12,3,15,0.00,0,Fog,149
2012-12-14,58,46,33,53,40,28,85,66,46,30.24,30.11,29.95,10,10,7,15,6,18,0.02,6,Rain,129
2012-12-15,74,66,57,63,57,41,100,67,34,29.94,29.89,29.85,10,8,2,20,7,25,0.27,6,Rain,207
2012-12-16,64,58,52,57,55,52,100,84,67,29.84,29.78,29.73,10,6,0,15,4,17,0.03,3,Fog-Rain,203
2012-12-17,64,52,40,55,43,36,100,68,36,29.92,29.83,29.75,10,10,4,20,7,25,0.00,0,,247
2012-12-18,78,58,37,54,40,35,92,57,22,29.90,29.85,29.80,10,10,9,20,8,25,0.00,0,,187
2012-12-19,78,66,53,66,62,51,93,77,60,29.84,29.74,29.63,10,10,6,39,14,55,0.01,5,,184
2012-12-20,59,48,36,55,26,11,79,49,18,30.41,30.12,29.74,10,9,2,33,16,55,0.32,2,Rain-Thunderstorm,302
2012-12-21,64,46,27,28,20,13,75,45,14,30.50,30.41,30.34,10,10,8,10,4,14,0.00,0,,240
2012-12-22,68,48,27,46,31,22,85,54,22,30.35,30.25,30.10,10,10,10,21,8,26,0.00,1,,187
2012-12-23,72,63,53,58,53,43,80,69,57,30.08,29.93,29.82,10,10,10,21,10,26,0.00,5,,205
2012-12-24,63,50,37,42,35,30,77,57,36,30.01,29.91,29.83,10,10,8,12,4,17,0.00,0,,319
2012-12-25,53,43,32,52,44,30,96,85,74,30.02,29.71,29.56,10,4,1,26,12,33,2.41,8,Rain-Snow-Thunderstorm,4
2012-12-26,33,30,26,30,26,23,92,85,78,30.27,30.17,30.01,10,9,6,22,9,29,0.00,7,,317
2012-12-27,46,36,25,40,33,23,100,83,65,30.18,30.05,29.93,10,6,2,14,6,17,0.17,7,Rain,109
2012-12-28,44,39,34,41,38,28,96,83,70,30.19,29.95,29.84,10,6,2,23,10,28,0.18,8,Rain,358
2012-12-29,47,37,26,27,21,17,82,57,31,30.48,30.37,30.20,10,10,8,17,7,24,0.00,0,,320
2012-12-30,46,35,23,30,24,21,88,63,38,30.53,30.43,30.30,10,10,5,14,4,16,0.00,1,,126
2012-12-31,54,48,41,54,46,31,100,79,58,30.28,30.06,29.98,10,5,0,17,7,22,0.76,8,Fog-Rain,136